sensor_id;sensor_type;location;lat;lon;timestamp;pressure;altitude;pressure_sealevel;temperature;humidity
52651;BME280;38537;47.226;39.702;2023-07-20T00:02:42;100093.69;;;20.18;51.15
52651;BME280;38537;47.226;39.702;2023-07-20T00:05:11;100098.53;;;20.18;51.30
52651;BME280;38537;47.226;39.702;2023-07-20T00:07:39;100085.72;;;20.01;51.34
52651;BME280;38537;47.226;39.702;2023-07-20T00:10:06;100087.66;;;19.97;51.61
52651;BME280;38537;47.226;39.702;2023-07-20T00:12:34;100096.38;;;20.08;51.33
52651;BME280;38537;47.226;39.702;2023-07-20T00:15:01;100109.34;;;20.09;51.46
52651;BME280;38537;47.226;39.702;2023-07-20T00:17:31;100090.44;;;19.94;51.53
52651;BME280;38537;47.226;39.702;2023-07-20T00:19:58;100119.03;;;20.08;51.62
52651;BME280;38537;47.226;39.702;2023-07-20T00:22:26;100114.06;;;20.01;51.85
52651;BME280;38537;47.226;39.702;2023-07-20T00:24:53;100109.84;;;19.92;51.91
52651;BME280;38537;47.226;39.702;2023-07-20T00:27:20;100113.38;;;19.85;51.92
52651;BME280;38537;47.226;39.702;2023-07-20T00:29:48;100121.94;;;19.89;52.03
52651;BME280;38537;47.226;39.702;2023-07-20T00:32:15;100095.84;;;19.79;51.97
52651;BME280;38537;47.226;39.702;2023-07-20T00:34:43;100100.72;;;19.79;51.87
52651;BME280;38537;47.226;39.702;2023-07-20T00:37:10;100121.22;;;19.95;52.08
52651;BME280;38537;47.226;39.702;2023-07-20T00:39:37;100118.41;;;19.95;52.15
52651;BME280;38537;47.226;39.702;2023-07-20T00:42:06;100101.97;;;19.81;51.95
52651;BME280;38537;47.226;39.702;2023-07-20T00:44:33;100100.63;;;19.75;52.12
52651;BME280;38537;47.226;39.702;2023-07-20T00:47:01;100107.44;;;19.71;52.44
52651;BME280;38537;47.226;39.702;2023-07-20T00:49:29;100118.38;;;19.72;52.49
52651;BME280;38537;47.226;39.702;2023-07-20T00:51:57;100119.97;;;19.70;52.45
52651;BME280;38537;47.226;39.702;2023-07-20T00:54:24;100098.59;;;19.53;52.36
52651;BME280;38537;47.226;39.702;2023-07-20T00:56:53;100118.19;;;19.62;52.55
52651;BME280;38537;47.226;39.702;2023-07-20T00:59:21;100119.69;;;19.56;52.34
52651;BME280;38537;47.226;39.702;2023-07-20T01:01:49;100145.41;;;19.66;52.80
52651;BME280;38537;47.226;39.702;2023-07-20T01:04:16;100144.06;;;19.60;53.05
52651;BME280;38537;47.226;39.702;2023-07-20T01:07:14;100154.94;;;19.58;53.36
52651;BME280;38537;47.226;39.702;2023-07-20T01:09:50;100138.47;;;19.44;53.45
52651;BME280;38537;47.226;39.702;2023-07-20T01:12:35;100161.66;;;19.50;53.69
52651;BME280;38537;47.226;39.702;2023-07-20T01:15:08;100149.41;;;19.46;53.32
52651;BME280;38537;47.226;39.702;2023-07-20T01:17:36;100141.06;;;19.34;53.19
52651;BME280;38537;47.226;39.702;2023-07-20T01:20:07;100166.34;;;19.42;53.60
52651;BME280;38537;47.226;39.702;2023-07-20T01:22:57;100164.25;;;19.39;53.59
52651;BME280;38537;47.226;39.702;2023-07-20T01:31:33;100184.97;;;19.43;54.17
52651;BME280;38537;47.226;39.702;2023-07-20T01:34:02;100162.31;;;19.24;53.66
52651;BME280;38537;47.226;39.702;2023-07-20T01:36:35;100188.00;;;19.35;54.13
52651;BME280;38537;47.226;39.702;2023-07-20T01:39:04;100164.69;;;19.22;54.12
52651;BME280;38537;47.226;39.702;2023-07-20T01:41:33;100186.16;;;19.23;54.09
52651;BME280;38537;47.226;39.702;2023-07-20T01:44:03;100189.44;;;19.25;54.23
52651;BME280;38537;47.226;39.702;2023-07-20T01:46:31;100178.75;;;19.18;53.63
52651;BME280;38537;47.226;39.702;2023-07-20T01:48:58;100188.44;;;19.17;53.63
52651;BME280;38537;47.226;39.702;2023-07-20T01:51:26;100194.19;;;19.21;53.91
52651;BME280;38537;47.226;39.702;2023-07-20T01:53:53;100192.91;;;19.18;53.64
52651;BME280;38537;47.226;39.702;2023-07-20T01:56:21;100194.03;;;19.14;53.85
52651;BME280;38537;47.226;39.702;2023-07-20T01:58:49;100185.91;;;19.12;53.53
52651;BME280;38537;47.226;39.702;2023-07-20T02:01:17;100195.84;;;19.22;53.80
52651;BME280;38537;47.226;39.702;2023-07-20T02:03:44;100184.72;;;19.13;54.07
52651;BME280;38537;47.226;39.702;2023-07-20T02:06:12;100190.81;;;19.15;54.15
52651;BME280;38537;47.226;39.702;2023-07-20T02:08:39;100209.75;;;19.31;53.61
52651;BME280;38537;47.226;39.702;2023-07-20T02:11:06;100196.75;;;19.26;53.69
52651;BME280;38537;47.226;39.702;2023-07-20T02:13:34;100190.25;;;19.26;53.65
52651;BME280;38537;47.226;39.702;2023-07-20T02:16:01;100208.44;;;19.44;53.71
52651;BME280;38537;47.226;39.702;2023-07-20T02:18:29;100194.78;;;19.49;53.45
52651;BME280;38537;47.226;39.702;2023-07-20T02:20:56;100193.91;;;19.45;53.32
52651;BME280;38537;47.226;39.702;2023-07-20T02:23:23;100183.25;;;19.39;53.04
52651;BME280;38537;47.226;39.702;2023-07-20T02:25:51;100207.50;;;19.56;53.21
52651;BME280;38537;47.226;39.702;2023-07-20T02:28:19;100201.31;;;19.50;52.94
52651;BME280;38537;47.226;39.702;2023-07-20T02:30:46;100175.13;;;19.37;53.11
52651;BME280;38537;47.226;39.702;2023-07-20T02:33:13;100188.28;;;19.49;53.20
52651;BME280;38537;47.226;39.702;2023-07-20T02:35:41;100207.13;;;19.57;53.00
52651;BME280;38537;47.226;39.702;2023-07-20T02:38:08;100204.22;;;19.54;52.93
52651;BME280;38537;47.226;39.702;2023-07-20T02:40:36;100209.66;;;19.62;52.64
52651;BME280;38537;47.226;39.702;2023-07-20T02:43:03;100190.94;;;19.58;52.71
52651;BME280;38537;47.226;39.702;2023-07-20T02:45:31;100208.03;;;19.61;52.09
52651;BME280;38537;47.226;39.702;2023-07-20T02:47:58;100212.31;;;19.74;52.29
52651;BME280;38537;47.226;39.702;2023-07-20T02:50:26;100205.75;;;19.70;52.30
52651;BME280;38537;47.226;39.702;2023-07-20T02:52:54;100202.44;;;19.65;52.05
52651;BME280;38537;47.226;39.702;2023-07-20T02:55:21;100202.44;;;19.65;52.34
52651;BME280;38537;47.226;39.702;2023-07-20T02:57:49;100211.75;;;19.65;52.06
52651;BME280;38537;47.226;39.702;2023-07-20T03:00:16;100204.00;;;19.62;52.23
52651;BME280;38537;47.226;39.702;2023-07-20T03:02:53;100191.59;;;19.51;52.16
52651;BME280;38537;47.226;39.702;2023-07-20T03:05:36;100204.16;;;19.69;52.25
52651;BME280;38537;47.226;39.702;2023-07-20T03:08:06;100194.13;;;19.75;51.96
52651;BME280;38537;47.226;39.702;2023-07-20T03:10:39;100182.34;;;19.73;52.19
52651;BME280;38537;47.226;39.702;2023-07-20T03:13:07;100200.56;;;19.92;51.79
52651;BME280;38537;47.226;39.702;2023-07-20T03:15:35;100204.69;;;19.98;51.50
52651;BME280;38537;47.226;39.702;2023-07-20T03:18:02;100186.03;;;19.97;51.40
52651;BME280;38537;47.226;39.702;2023-07-20T03:20:31;100213.91;;;20.14;51.30
52651;BME280;38537;47.226;39.702;2023-07-20T03:22:58;100207.94;;;20.19;51.29
52651;BME280;38537;47.226;39.702;2023-07-20T03:25:26;100218.16;;;20.24;51.36
52651;BME280;38537;47.226;39.702;2023-07-20T03:27:54;100226.41;;;20.32;51.65
52651;BME280;38537;47.226;39.702;2023-07-20T03:30:22;100209.19;;;20.22;51.79
52651;BME280;38537;47.226;39.702;2023-07-20T03:32:50;100223.22;;;20.34;51.51
52651;BME280;38537;47.226;39.702;2023-07-20T03:35:19;100225.38;;;20.40;51.45
52651;BME280;38537;47.226;39.702;2023-07-20T03:37:47;100239.38;;;20.52;51.41
52651;BME280;38537;47.226;39.702;2023-07-20T03:40:16;100222.28;;;20.49;51.60
52651;BME280;38537;47.226;39.702;2023-07-20T03:42:43;100239.16;;;20.65;51.69
52651;BME280;38537;47.226;39.702;2023-07-20T03:45:12;100207.44;;;20.59;51.56
52651;BME280;38537;47.226;39.702;2023-07-20T03:47:40;100229.97;;;20.71;51.28
52651;BME280;38537;47.226;39.702;2023-07-20T03:50:08;100231.22;;;20.74;51.56
52651;BME280;38537;47.226;39.702;2023-07-20T03:52:37;100234.97;;;20.81;51.38
52651;BME280;38537;47.226;39.702;2023-07-20T03:55:04;100219.13;;;20.77;51.89
52651;BME280;38537;47.226;39.702;2023-07-20T03:57:33;100242.16;;;20.98;52.03
52651;BME280;38537;47.226;39.702;2023-07-20T04:00:00;100250.78;;;21.05;52.09
52651;BME280;38537;47.226;39.702;2023-07-20T04:02:38;100251.66;;;21.09;52.49
52651;BME280;38537;47.226;39.702;2023-07-20T04:05:07;100251.38;;;21.18;52.63
52651;BME280;38537;47.226;39.702;2023-07-20T04:07:36;100247.81;;;21.21;52.16
52651;BME280;38537;47.226;39.702;2023-07-20T04:10:04;100258.13;;;21.33;52.28
52651;BME280;38537;47.226;39.702;2023-07-20T04:12:31;100263.03;;;21.36;52.35
52651;BME280;38537;47.226;39.702;2023-07-20T04:15:00;100272.06;;;21.41;52.42
52651;BME280;38537;47.226;39.702;2023-07-20T04:17:30;100254.19;;;21.41;52.34
52651;BME280;38537;47.226;39.702;2023-07-20T04:19:58;100282.91;;;21.62;51.66
52651;BME280;38537;47.226;39.702;2023-07-20T04:22:30;100298.16;;;21.80;51.42
52651;BME280;38537;47.226;39.702;2023-07-20T04:24:58;100289.25;;;21.82;51.22
52651;BME280;38537;47.226;39.702;2023-07-20T04:27:29;100274.59;;;21.80;51.29
52651;BME280;38537;47.226;39.702;2023-07-20T04:29:58;100280.41;;;21.90;51.17
52651;BME280;38537;47.226;39.702;2023-07-20T04:32:44;100284.50;;;21.93;50.24
52651;BME280;38537;47.226;39.702;2023-07-20T04:38:08;100293.16;;;22.00;49.80
52651;BME280;38537;47.226;39.702;2023-07-20T04:40:36;100292.84;;;22.09;49.93
52651;BME280;38537;47.226;39.702;2023-07-20T04:43:04;100305.72;;;22.29;49.87
52651;BME280;38537;47.226;39.702;2023-07-20T04:45:32;100298.81;;;22.34;49.22
52651;BME280;38537;47.226;39.702;2023-07-20T04:48:00;100290.41;;;22.44;49.19
52651;BME280;38537;47.226;39.702;2023-07-20T04:50:29;100305.59;;;22.59;49.08
52651;BME280;38537;47.226;39.702;2023-07-20T04:52:57;100295.44;;;22.58;48.36
52651;BME280;38537;47.226;39.702;2023-07-20T04:55:25;100318.09;;;22.84;48.57
52651;BME280;38537;47.226;39.702;2023-07-20T04:58:03;100318.63;;;23.01;48.37
52651;BME280;38537;47.226;39.702;2023-07-20T05:00:32;100306.38;;;22.93;47.29
52651;BME280;38537;47.226;39.702;2023-07-20T05:03:00;100305.16;;;22.94;47.18
52651;BME280;38537;47.226;39.702;2023-07-20T05:05:29;100308.03;;;22.98;47.06
52651;BME280;38537;47.226;39.702;2023-07-20T05:07:57;100288.47;;;22.96;47.10
52651;BME280;38537;47.226;39.702;2023-07-20T05:10:26;100292.28;;;23.11;46.58
52651;BME280;38537;47.226;39.702;2023-07-20T05:12:54;100315.69;;;23.38;46.73
52651;BME280;38537;47.226;39.702;2023-07-20T05:15:21;100295.28;;;23.32;46.82
52651;BME280;38537;47.226;39.702;2023-07-20T05:17:48;100306.38;;;23.48;46.03
52651;BME280;38537;47.226;39.702;2023-07-20T05:20:16;100291.34;;;23.51;46.09
52651;BME280;38537;47.226;39.702;2023-07-20T05:22:43;100300.38;;;23.60;46.17
52651;BME280;38537;47.226;39.702;2023-07-20T05:25:12;100303.72;;;23.76;45.55
52651;BME280;38537;47.226;39.702;2023-07-20T05:27:41;100293.59;;;23.86;45.86
52651;BME280;38537;47.226;39.702;2023-07-20T05:30:09;100272.78;;;23.82;46.07
52651;BME280;38537;47.226;39.702;2023-07-20T05:32:36;100287.53;;;23.98;45.50
52651;BME280;38537;47.226;39.702;2023-07-20T05:35:04;100273.69;;;24.00;44.76
52651;BME280;38537;47.226;39.702;2023-07-20T05:37:32;100268.44;;;24.13;44.92
52651;BME280;38537;47.226;39.702;2023-07-20T05:40:00;100282.75;;;24.23;45.57
52651;BME280;38537;47.226;39.702;2023-07-20T05:42:30;100268.50;;;24.27;45.42
52651;BME280;38537;47.226;39.702;2023-07-20T05:44:57;100268.53;;;24.41;45.32
52651;BME280;38537;47.226;39.702;2023-07-20T05:47:24;100283.63;;;24.52;44.64
52651;BME280;38537;47.226;39.702;2023-07-20T05:49:52;100277.94;;;24.52;44.74
52651;BME280;38537;47.226;39.702;2023-07-20T05:52:20;100270.19;;;24.56;44.54
52651;BME280;38537;47.226;39.702;2023-07-20T05:54:47;100290.19;;;24.74;44.87
52651;BME280;38537;47.226;39.702;2023-07-20T05:57:14;100286.94;;;24.72;44.42
52651;BME280;38537;47.226;39.702;2023-07-20T05:59:42;100289.00;;;24.82;44.38
52651;BME280;38537;47.226;39.702;2023-07-20T06:02:11;100282.06;;;24.83;43.91
52651;BME280;38537;47.226;39.702;2023-07-20T06:04:39;100296.78;;;24.96;44.48
52651;BME280;38537;47.226;39.702;2023-07-20T06:07:07;100269.41;;;24.88;43.73
52651;BME280;38537;47.226;39.702;2023-07-20T06:09:34;100276.38;;;25.01;43.82
52651;BME280;38537;47.226;39.702;2023-07-20T06:12:03;100275.97;;;24.96;43.51
52651;BME280;38537;47.226;39.702;2023-07-20T06:14:31;100294.31;;;25.12;43.62
52651;BME280;38537;47.226;39.702;2023-07-20T06:16:58;100283.69;;;25.16;43.98
52651;BME280;38537;47.226;39.702;2023-07-20T06:19:26;100291.06;;;25.21;43.69
52651;BME280;38537;47.226;39.702;2023-07-20T06:21:53;100276.75;;;25.17;43.44
52651;BME280;38537;47.226;39.702;2023-07-20T06:24:21;100275.94;;;25.24;42.94
52651;BME280;38537;47.226;39.702;2023-07-20T06:26:48;100269.41;;;25.23;42.62
52651;BME280;38537;47.226;39.702;2023-07-20T06:29:16;100275.50;;;25.40;42.44
52651;BME280;38537;47.226;39.702;2023-07-20T06:31:43;100271.41;;;25.41;41.75
52651;BME280;38537;47.226;39.702;2023-07-20T06:34:10;100260.78;;;25.45;42.23
52651;BME280;38537;47.226;39.702;2023-07-20T06:36:38;100268.16;;;25.46;41.88
52651;BME280;38537;47.226;39.702;2023-07-20T06:39:05;100250.19;;;25.42;41.88
52651;BME280;38537;47.226;39.702;2023-07-20T06:41:35;100259.94;;;25.55;42.00
52651;BME280;38537;47.226;39.702;2023-07-20T06:44:05;100252.56;;;25.61;41.65
52651;BME280;38537;47.226;39.702;2023-07-20T06:46:33;100273.41;;;25.72;41.80
52651;BME280;38537;47.226;39.702;2023-07-20T06:49:00;100275.06;;;25.70;40.84
52651;BME280;38537;47.226;39.702;2023-07-20T06:51:31;100275.50;;;25.54;39.84
52651;BME280;38537;47.226;39.702;2023-07-20T06:53:58;100280.81;;;25.52;40.79
52651;BME280;38537;47.226;39.702;2023-07-20T06:56:25;100271.03;;;25.32;39.98
52651;BME280;38537;47.226;39.702;2023-07-20T06:58:55;100282.03;;;25.40;40.48
52651;BME280;38537;47.226;39.702;2023-07-20T07:01:23;100276.31;;;25.37;40.86
52651;BME280;38537;47.226;39.702;2023-07-20T07:03:51;100275.91;;;25.42;40.82
52651;BME280;38537;47.226;39.702;2023-07-20T07:06:22;100260.38;;;25.50;41.17
52651;BME280;38537;47.226;39.702;2023-07-20T07:08:52;100274.63;;;25.57;40.46
52651;BME280;38537;47.226;39.702;2023-07-20T07:11:21;100270.97;;;25.56;40.27
52651;BME280;38537;47.226;39.702;2023-07-20T07:13:49;100275.50;;;25.40;39.41
52651;BME280;38537;47.226;39.702;2023-07-20T07:16:18;100282.84;;;25.48;40.05
52651;BME280;38537;47.226;39.702;2023-07-20T07:18:50;100290.22;;;25.49;40.12
52651;BME280;38537;47.226;39.702;2023-07-20T07:21:18;100275.06;;;25.55;40.67
52651;BME280;38537;47.226;39.702;2023-07-20T07:23:45;100276.72;;;25.64;39.80
52651;BME280;38537;47.226;39.702;2023-07-20T07:26:13;100268.13;;;25.71;40.62
52651;BME280;38537;47.226;39.702;2023-07-20T07:28:40;100263.63;;;25.66;39.96
52651;BME280;38537;47.226;39.702;2023-07-20T07:31:09;100261.56;;;25.70;40.22
52651;BME280;38537;47.226;39.702;2023-07-20T07:33:36;100262.75;;;25.80;40.21
52651;BME280;38537;47.226;39.702;2023-07-20T07:36:05;100246.81;;;25.79;39.90
52651;BME280;38537;47.226;39.702;2023-07-20T07:38:32;100255.81;;;25.81;39.18
52651;BME280;38537;47.226;39.702;2023-07-20T07:41:20;100255.38;;;25.82;39.30
52651;BME280;38537;47.226;39.702;2023-07-20T07:43:48;100268.88;;;25.78;38.77
52651;BME280;38537;47.226;39.702;2023-07-20T07:46:17;100270.56;;;25.72;39.25
52651;BME280;38537;47.226;39.702;2023-07-20T07:48:44;100256.66;;;25.74;39.60
52651;BME280;38537;47.226;39.702;2023-07-20T07:51:13;100270.50;;;25.86;39.87
52651;BME280;38537;47.226;39.702;2023-07-20T07:53:42;100253.31;;;25.93;39.56
52651;BME280;38537;47.226;39.702;2023-07-20T07:56:10;100241.88;;;25.93;39.82
52651;BME280;38537;47.226;39.702;2023-07-20T07:58:39;100248.72;;;26.10;39.60
52651;BME280;38537;47.226;39.702;2023-07-20T08:01:07;100234.41;;;26.14;40.06
52651;BME280;38537;47.226;39.702;2023-07-20T08:03:34;100236.03;;;26.18;40.00
52651;BME280;38537;47.226;39.702;2023-07-20T08:06:03;100227.78;;;26.24;40.08
52651;BME280;38537;47.226;39.702;2023-07-20T08:08:32;100239.97;;;26.42;39.85
52651;BME280;38537;47.226;39.702;2023-07-20T08:10:59;100225.28;;;26.40;40.03
52651;BME280;38537;47.226;39.702;2023-07-20T08:13:34;100227.66;;;26.49;39.76
52651;BME280;38537;47.226;39.702;2023-07-20T08:16:01;100238.22;;;26.59;39.44
52651;BME280;38537;47.226;39.702;2023-07-20T08:18:32;100245.09;;;26.69;39.69
52651;BME280;38537;47.226;39.702;2023-07-20T08:21:00;100252.38;;;26.80;39.49
52651;BME280;38537;47.226;39.702;2023-07-20T08:23:27;100249.00;;;26.96;39.48
52651;BME280;38537;47.226;39.702;2023-07-20T08:25:55;100237.47;;;27.03;39.13
52651;BME280;38537;47.226;39.702;2023-07-20T08:28:22;100252.56;;;27.07;38.86
52651;BME280;38537;47.226;39.702;2023-07-20T08:30:50;100250.88;;;27.13;38.92
52651;BME280;38537;47.226;39.702;2023-07-20T08:33:18;100251.25;;;27.19;38.82
52651;BME280;38537;47.226;39.702;2023-07-20T08:35:50;100250.28;;;27.33;38.90
52651;BME280;38537;47.226;39.702;2023-07-20T08:38:17;100258.03;;;27.36;37.98
52651;BME280;38537;47.226;39.702;2023-07-20T08:40:46;100245.84;;;27.28;37.27
52651;BME280;38537;47.226;39.702;2023-07-20T08:43:14;100250.38;;;27.25;37.08
52651;BME280;38537;47.226;39.702;2023-07-20T08:45:46;100254.44;;;27.28;37.53
52651;BME280;38537;47.226;39.702;2023-07-20T08:48:15;100239.22;;;27.31;37.89
52651;BME280;38537;47.226;39.702;2023-07-20T08:50:45;100243.75;;;27.28;35.93
52651;BME280;38537;47.226;39.702;2023-07-20T08:53:13;100229.53;;;27.21;37.05
52651;BME280;38537;47.226;39.702;2023-07-20T08:55:44;100236.91;;;27.19;36.97
52651;BME280;38537;47.226;39.702;2023-07-20T08:58:12;100228.28;;;27.22;37.31
52651;BME280;38537;47.226;39.702;2023-07-20T09:00:41;100249.03;;;27.34;37.49
52651;BME280;38537;47.226;39.702;2023-07-20T09:03:12;100254.69;;;27.44;36.71
52651;BME280;38537;47.226;39.702;2023-07-20T09:05:41;100227.66;;;27.42;36.89
52651;BME280;38537;47.226;39.702;2023-07-20T09:08:08;100230.78;;;27.54;37.19
52651;BME280;38537;47.226;39.702;2023-07-20T09:10:36;100223.13;;;27.44;36.28
52651;BME280;38537;47.226;39.702;2023-07-20T09:13:03;100245.13;;;27.58;36.83
52651;BME280;38537;47.226;39.702;2023-07-20T09:15:31;100249.97;;;27.64;37.17
52651;BME280;38537;47.226;39.702;2023-07-20T09:18:01;100251.97;;;27.71;36.99
52651;BME280;38537;47.226;39.702;2023-07-20T09:20:32;100260.84;;;27.80;36.36
52651;BME280;38537;47.226;39.702;2023-07-20T09:23:04;100242.84;;;27.76;37.06
52651;BME280;38537;47.226;39.702;2023-07-20T09:25:33;100256.66;;;27.88;36.94
52651;BME280;38537;47.226;39.702;2023-07-20T09:28:03;100247.47;;;28.01;37.16
52651;BME280;38537;47.226;39.702;2023-07-20T09:30:32;100254.06;;;27.97;36.32
52651;BME280;38537;47.226;39.702;2023-07-20T09:33:00;100253.44;;;27.83;34.96
52651;BME280;38537;47.226;39.702;2023-07-20T09:35:27;100244.19;;;27.68;34.70
52651;BME280;38537;47.226;39.702;2023-07-20T09:38:09;100237.66;;;27.68;34.84
52651;BME280;38537;47.226;39.702;2023-07-20T09:40:39;100231.88;;;27.71;35.50
52651;BME280;38537;47.226;39.702;2023-07-20T09:43:10;100227.22;;;27.81;34.88
52651;BME280;38537;47.226;39.702;2023-07-20T09:45:42;100225.41;;;27.94;35.67
52651;BME280;38537;47.226;39.702;2023-07-20T09:48:12;100217.19;;;27.96;34.68
52651;BME280;38537;47.226;39.702;2023-07-20T09:50:49;100216.97;;;27.80;33.13
52651;BME280;38537;47.226;39.702;2023-07-20T09:53:19;100229.59;;;27.89;33.46
52651;BME280;38537;47.226;39.702;2023-07-20T09:55:47;100240.13;;;27.66;32.19
52651;BME280;38537;47.226;39.702;2023-07-20T09:58:16;100236.66;;;27.44;31.96
52651;BME280;38537;47.226;39.702;2023-07-20T10:00:45;100226.94;;;27.30;32.63
52651;BME280;38537;47.226;39.702;2023-07-20T10:03:22;100227.81;;;27.27;33.23
52651;BME280;38537;47.226;39.702;2023-07-20T10:06:02;100236.38;;;27.31;32.83
52651;BME280;38537;47.226;39.702;2023-07-20T10:08:35;100228.63;;;27.28;33.81
52651;BME280;38537;47.226;39.702;2023-07-20T10:11:10;100218.72;;;27.33;34.08
52651;BME280;38537;47.226;39.702;2023-07-20T10:13:41;100227.72;;;27.35;33.30
52651;BME280;38537;47.226;39.702;2023-07-20T10:16:15;100209.75;;;27.30;31.93
52651;BME280;38537;47.226;39.702;2023-07-20T10:18:51;100196.22;;;27.31;33.72
52651;BME280;38537;47.226;39.702;2023-07-20T10:21:21;100204.25;;;27.47;33.28
52651;BME280;38537;47.226;39.702;2023-07-20T10:23:56;100189.56;;;27.41;34.39
52651;BME280;38537;47.226;39.702;2023-07-20T10:26:25;100201.25;;;27.61;34.71
52651;BME280;38537;47.226;39.702;2023-07-20T10:28:53;100209.56;;;27.82;34.88
52651;BME280;38537;47.226;39.702;2023-07-20T10:31:22;100187.00;;;27.84;34.95
52651;BME280;38537;47.226;39.702;2023-07-20T10:33:51;100189.06;;;28.14;34.57
52651;BME280;38537;47.226;39.702;2023-07-20T10:36:26;100179.19;;;28.42;33.69
52651;BME280;38537;47.226;39.702;2023-07-20T10:38:58;100190.72;;;28.65;33.20
52651;BME280;38537;47.226;39.702;2023-07-20T10:41:33;100191.38;;;28.77;33.21
52651;BME280;38537;47.226;39.702;2023-07-20T10:44:03;100191.38;;;28.77;31.95
52651;BME280;38537;47.226;39.702;2023-07-20T10:46:42;100168.81;;;28.75;32.41
52651;BME280;38537;47.226;39.702;2023-07-20T10:49:14;100186.19;;;28.91;32.95
52651;BME280;38537;47.226;39.702;2023-07-20T10:51:47;100184.84;;;28.99;31.70
52651;BME280;38537;47.226;39.702;2023-07-20T10:56:49;100176.09;;;28.80;31.66
52651;BME280;38537;47.226;39.702;2023-07-20T10:59:37;100179.56;;;28.94;32.86
52651;BME280;38537;47.226;39.702;2023-07-20T11:02:08;100181.50;;;28.78;31.88
52651;BME280;38537;47.226;39.702;2023-07-20T11:04:40;100173.81;;;28.71;32.01
52651;BME280;38537;47.226;39.702;2023-07-20T11:07:08;100158.28;;;28.65;32.56
52651;BME280;38537;47.226;39.702;2023-07-20T11:09:37;100176.72;;;28.67;31.81
52651;BME280;38537;47.226;39.702;2023-07-20T11:14:55;100182.41;;;28.71;31.98
52651;BME280;38537;47.226;39.702;2023-07-20T11:17:30;100171.59;;;28.55;31.48
52651;BME280;38537;47.226;39.702;2023-07-20T11:20:00;100148.47;;;28.39;32.01
52651;BME280;38537;47.226;39.702;2023-07-20T11:22:31;100164.06;;;28.38;31.98
52651;BME280;38537;47.226;39.702;2023-07-20T11:25:00;100172.44;;;28.29;31.71
52651;BME280;38537;47.226;39.702;2023-07-20T11:27:29;100161.47;;;28.20;31.61
52651;BME280;38537;47.226;39.702;2023-07-20T11:29:57;100172.09;;;28.23;32.00
52651;BME280;38537;47.226;39.702;2023-07-20T11:32:24;100159.31;;;28.28;32.78
52651;BME280;38537;47.226;39.702;2023-07-20T11:34:52;100158.91;;;28.29;32.37
52651;BME280;38537;47.226;39.702;2023-07-20T11:37:19;100139.56;;;28.34;33.22
52651;BME280;38537;47.226;39.702;2023-07-20T11:39:47;100144.19;;;28.51;33.18
52651;BME280;38537;47.226;39.702;2023-07-20T11:42:15;100154.97;;;28.66;32.97
52651;BME280;38537;47.226;39.702;2023-07-20T11:44:51;100162.63;;;28.77;31.01
52651;BME280;38537;47.226;39.702;2023-07-20T11:47:20;100150.56;;;28.85;32.48
52651;BME280;38537;47.226;39.702;2023-07-20T11:49:47;100114.38;;;28.64;32.25
52651;BME280;38537;47.226;39.702;2023-07-20T11:52:22;100128.75;;;28.88;33.15
52651;BME280;38537;47.226;39.702;2023-07-20T11:54:50;100127.66;;;29.02;32.89
52651;BME280;38537;47.226;39.702;2023-07-20T11:57:21;100139.94;;;29.25;32.52
52651;BME280;38537;47.226;39.702;2023-07-20T11:59:55;100145.81;;;29.42;32.29
52651;BME280;38537;47.226;39.702;2023-07-20T12:02:37;100130.44;;;29.28;31.48
52651;BME280;38537;47.226;39.702;2023-07-20T12:05:06;100127.66;;;29.45;32.52
52651;BME280;38537;47.226;39.702;2023-07-20T12:07:36;100136.59;;;29.50;31.05
52651;BME280;38537;47.226;39.702;2023-07-20T12:10:09;100136.50;;;29.54;30.43
52651;BME280;38537;47.226;39.702;2023-07-20T12:12:38;100144.41;;;29.50;30.91
52651;BME280;38537;47.226;39.702;2023-07-20T12:17:46;100132.69;;;28.97;30.00
52651;BME280;38537;47.226;39.702;2023-07-20T12:20:36;100128.38;;;28.86;30.69
52651;BME280;38537;47.226;39.702;2023-07-20T12:23:13;100142.75;;;28.86;31.58
52651;BME280;38537;47.226;39.702;2023-07-20T12:25:44;100129.94;;;28.90;31.85
52651;BME280;38537;47.226;39.702;2023-07-20T12:28:18;100139.69;;;28.96;32.01
52651;BME280;38537;47.226;39.702;2023-07-20T12:30:46;100127.22;;;28.80;31.12
52651;BME280;38537;47.226;39.702;2023-07-20T12:33:19;100128.38;;;28.62;31.10
52651;BME280;38537;47.226;39.702;2023-07-20T12:35:46;100114.63;;;28.50;30.92
52651;BME280;38537;47.226;39.702;2023-07-20T12:38:14;100113.38;;;28.51;31.25
52651;BME280;38537;47.226;39.702;2023-07-20T12:40:42;100108.25;;;28.62;31.65
52651;BME280;38537;47.226;39.702;2023-07-20T12:43:09;100107.75;;;28.67;31.56
52651;BME280;38537;47.226;39.702;2023-07-20T12:45:37;100094.44;;;28.77;32.69
52651;BME280;38537;47.226;39.702;2023-07-20T12:48:04;100120.44;;;28.93;30.71
52651;BME280;38537;47.226;39.702;2023-07-20T12:50:32;100118.31;;;28.97;30.92
52651;BME280;38537;47.226;39.702;2023-07-20T12:53:00;100112.25;;;28.92;31.58
52651;BME280;38537;47.226;39.702;2023-07-20T12:55:30;100109.97;;;29.03;31.83
52651;BME280;38537;47.226;39.702;2023-07-20T12:57:58;100104.09;;;29.10;31.17
52651;BME280;38537;47.226;39.702;2023-07-20T13:00:26;100101.47;;;29.19;31.34
52651;BME280;38537;47.226;39.702;2023-07-20T13:02:53;100122.84;;;29.18;30.84
52651;BME280;38537;47.226;39.702;2023-07-20T13:05:24;100127.03;;;29.14;30.72
52651;BME280;38537;47.226;39.702;2023-07-20T13:08:11;100113.22;;;29.05;30.75
52651;BME280;38537;47.226;39.702;2023-07-20T13:10:43;100108.81;;;29.01;31.33